Time;durP1;ratioP1;P1;durP2;ratioP2;P2;SDS_P1;SDS_P2;PMS_P1;PMS_P2;Temp;Humidity;BMP_temperature;BMP_pressure;BME280_temperature;BME280_humidity;BME280_pressure;Samples;Min_cycle;Max_cycle;Signal;HPM_P1;HPM_P2
2022/05/16 00:02:42;;;;;;;;;;;;;;;;;;5100927;28;19916;-82
2022/05/16 00:05:29;;;;;;;;;;;;;;;;;;5092299;28;19908;-83
2022/05/16 00:08:15;;;;;;;;;;;;;;;;;;5096024;28;20524;-82
2022/05/16 00:11:02;;;;;;;;;;;;;;;;;;5091440;28;19909;-81
2022/05/16 00:13:48;;;;;;;;;;;;;;;;;;5086711;28;19908;-81
2022/05/16 00:16:35;;;;;;;;;;;;;;;;;;5091682;28;19920;-80
2022/05/16 00:19:21;;;;;;;;;;;;;;;;;;5092354;28;19908;-81
2022/05/16 00:22:08;;;;;;;;;;;;;;;;;;5093357;28;19908;-81
2022/05/16 00:24:54;;;;;;;;;;;;;;;;;;5079144;28;19925;-81
2022/05/16 00:27:41;;;;;;;;;;;;;;;;;;5092594;28;19930;-81
2022/05/16 00:30:27;;;;;;;;;;;;;;;;;;5077176;28;20316;-82
2022/05/16 00:33:14;;;;;;;;;;;;;;;;;;5085516;28;19908;-82
2022/05/16 00:36:00;;;;;;;;;;;;;;;;;;5088327;28;20435;-82
2022/05/16 00:38:47;;;;;;;;;;;;;;;;;;5089606;28;19919;-82
2022/05/16 00:41:33;;;;;;;;;;;;;;;;;;5089967;28;20396;-81
2022/05/16 00:44:20;;;;;;;;;;;;;;;;;;5082982;28;19919;-81
2022/05/16 00:47:06;;;;;;;;;;;;;;;;;;5086535;28;19912;-82
2022/05/16 00:49:53;;;;;;;;;;;;;;;;;;5094148;28;19922;-83
2022/05/16 00:52:39;;;;;;;;;;;;;;;;;;5081519;28;19908;-83
2022/05/16 00:55:26;;;;;;;;;;;;;;;;;;5089985;28;19924;-83
2022/05/16 00:58:12;;;;;;;;;;;;;;;;;;5096147;28;19908;-82
2022/05/16 01:00:59;;;;;;;;;;;;;;;;;;5095225;28;19908;-81
2022/05/16 01:06:51;;;;;;;;;;;;;;;;;;5090263;28;19923;-81
2022/05/16 01:09:37;;;;;;;;;;;;;;;;;;5084090;28;20344;-81
2022/05/16 01:12:24;;;;;;;;;;;;;;;;;;5100600;28;19912;-82
2022/05/16 01:15:10;;;;;;;;;;;;;;;;;;5087482;28;19919;-82
2022/05/16 01:17:57;;;;;;;;;;;;;;;;;;5103642;27;20410;-80
2022/05/16 01:20:43;;;;;;;;;;;;;;;;;;5087610;28;19908;-82
2022/05/16 01:23:29;;;;;;;;;;;;;;;;;;5088932;28;19908;-80
2022/05/16 01:26:16;;;;;;;;;;;;;;;;;;5081190;28;19916;-80
2022/05/16 01:29:02;;;;;;;;;;;;;;;;;;5098792;28;20397;-81
2022/05/16 01:31:49;;;;;;;;;;;;;;;;;;5086988;28;19909;-81
2022/05/16 01:34:35;;;;;;;;;;;;;;;;;;5087745;28;19916;-81
2022/05/16 01:38:18;;;;;;;;;;;;;;;;;;5078414;28;19916;-82
2022/05/16 01:40:28;;;;;;;;;;;;;;;;;;5078295;28;19908;-82
2022/05/16 01:43:15;;;;;;;;;;;;;;;;;;5089289;28;19908;-82
2022/05/16 01:46:01;;;;;;;;;;;;;;;;;;5089141;28;20288;-81
2022/05/16 01:48:48;;;;;;;;;;;;;;;;;;5072650;28;19916;-83
2022/05/16 01:51:34;;;;;;;;;;;;;;;;;;5072713;28;19916;-83
2022/05/16 01:54:20;;;;;;;;;;;;;;;;;;5095007;28;19912;-84
2022/05/16 01:57:07;;;;;;;;;;;;;;;;;;5087684;28;19916;-83
2022/05/16 01:59:53;;;;;;;;;;;;;;;;;;5095785;28;19916;-82
2022/05/16 02:02:42;;;;;;;;;;;;;;;;;;5089666;28;19919;-82
2022/05/16 02:05:28;;;;;;;;;;;;;;;;;;5077934;28;19908;-82
2022/05/16 02:08:15;;;;;;;;;;;;;;;;;;5081281;28;19908;-83
2022/05/16 02:11:01;;;;;;;;;;;;;;;;;;5092408;28;19918;-83
2022/05/16 02:13:48;;;;;;;;;;;;;;;;;;5092623;28;19915;-83
2022/05/16 02:16:34;;;;;;;;;;;;;;;;;;5086709;28;20403;-83
2022/05/16 02:19:20;;;;;;;;;;;;;;;;;;5089710;28;19920;-83
2022/05/16 02:25:12;;;;;;;;;;;;;;;;;;5079458;28;20477;-82
2022/05/16 02:27:59;;;;;;;;;;;;;;;;;;5090769;28;19926;-83
2022/05/16 02:30:46;;;;;;;;;;;;;;;;;;5092199;28;19912;-83
2022/05/16 02:33:32;;;;;;;;;;;;;;;;;;5092613;28;20363;-81
2022/05/16 02:36:19;;;;;;;;;;;;;;;;;;5092937;28;20419;-82
2022/05/16 02:39:05;;;;;;;;;;;;;;;;;;5106485;27;20372;-80
2022/05/16 02:41:52;;;;;;;;;;;;;;;;;;5091503;28;20281;-82
2022/05/16 02:44:38;;;;;;;;;;;;;;;;;;5094583;28;19915;-85
2022/05/16 02:47:25;;;;;;;;;;;;;;;;;;5097773;28;19912;-82
2022/05/16 02:50:11;;;;;;;;;;;;;;;;;;5092101;28;19935;-82
2022/05/16 02:52:58;;;;;;;;;;;;;;;;;;5094727;28;19918;-82
2022/05/16 02:55:44;;;;;;;;;;;;;;;;;;5099972;28;20364;-82
2022/05/16 02:58:31;;;;;;;;;;;;;;;;;;5093994;28;19912;-81
2022/05/16 03:01:17;;;;;;;;;;;;;;;;;;5097592;28;19912;-81
2022/05/16 03:04:04;;;;;;;;;;;;;;;;;;5095953;28;19908;-82
2022/05/16 03:06:50;;;;;;;;;;;;;;;;;;5092543;28;20402;-82
2022/05/16 03:09:37;;;;;;;;;;;;;;;;;;5084023;28;20379;-82
2022/05/16 03:12:23;;;;;;;;;;;;;;;;;;5091867;28;19920;-82
2022/05/16 03:15:10;;;;;;;;;;;;;;;;;;5091990;28;20382;-81
2022/05/16 03:17:56;;;;;;;;;;;;;;;;;;5083768;28;20446;-82
2022/05/16 03:20:43;;;;;;;;;;;;;;;;;;5085225;28;19941;-81
2022/05/16 03:23:30;;;;;;;;;;;;;;;;;;5085014;28;19908;-81
2022/05/16 03:26:34;;;;;;;;;;;;;;;;;;5092178;28;19920;-81
2022/05/16 03:29:20;;;;;;;;;;;;;;;;;;5085629;28;19924;-84
2022/05/16 03:32:16;;;;;;;;;;;;;;;;;;5089217;28;20367;-81
2022/05/16 03:35:03;;;;;;;;;;;;;;;;;;5090022;28;19935;-82
2022/05/16 03:41:02;;;;;;;;;;;;;;;;;;5065243;28;20173;-81
2022/05/16 03:43:50;;;;;;;;;;;;;;;;;;5085832;28;19945;-80
2022/05/16 03:46:37;;;;;;;;;;;;;;;;;;5085227;28;19912;-81
2022/05/16 03:49:24;;;;;;;;;;;;;;;;;;5080114;28;19919;-81
2022/05/16 03:52:10;;;;;;;;;;;;;;;;;;5080309;28;20359;-82
2022/05/16 03:54:57;;;;;;;;;;;;;;;;;;5080499;28;19934;-80
2022/05/16 03:57:43;;;;;;;;;;;;;;;;;;5083408;28;19990;-80
2022/05/16 04:00:30;;;;;;;;;;;;;;;;;;5090188;28;20287;-80
2022/05/16 04:03:16;;;;;;;;;;;;;;;;;;5086267;28;19912;-80
2022/05/16 04:06:03;;;;;;;;;;;;;;;;;;5087322;28;19908;-80
2022/05/16 04:08:49;;;;;;;;;;;;;;;;;;5076181;28;19931;-81
2022/05/16 04:11:36;;;;;;;;;;;;;;;;;;5082642;28;19918;-80
2022/05/16 04:14:22;;;;;;;;;;;;;;;;;;5083779;28;19912;-81
2022/05/16 04:17:09;;;;;;;;;;;;;;;;;;5105542;27;19920;-81
2022/05/16 04:19:55;;;;;;;;;;;;;;;;;;5083329;28;19912;-83
2022/05/16 04:22:42;;;;;;;;;;;;;;;;;;5095121;28;19915;-82
2022/05/16 04:25:29;;;;;;;;;;;;;;;;;;5090221;28;19908;-83
2022/05/16 04:28:15;;;;;;;;;;;;;;;;;;5091046;28;19930;-82
2022/05/16 04:31:02;;;;;;;;;;;;;;;;;;5089717;28;20279;-80
2022/05/16 04:33:48;;;;;;;;;;;;;;;;;;5091257;28;19912;-82
2022/05/16 04:36:35;;;;;;;;;;;;;;;;;;5078206;28;19916;-83
2022/05/16 04:39:21;;;;;;;;;;;;;;;;;;5079407;28;20356;-82
2022/05/16 04:45:14;;;;;;;;;;;;;;;;;;5077814;28;19915;-82
2022/05/16 04:48:06;;;;;;;;;;;;;;;;;;5088674;28;19919;-82
2022/05/16 04:50:52;;;;;;;;;;;;;;;;;;5088318;28;20409;-82
2022/05/16 04:53:39;;;;;;;;;;;;;;;;;;5076206;28;19913;-82
2022/05/16 04:56:25;;;;;;;;;;;;;;;;;;5101133;28;20331;-82
2022/05/16 04:59:12;;;;;;;;;;;;;;;;;;5087960;28;19916;-81
2022/05/16 05:01:59;;;;;;;;;;;;;;;;;;5086538;28;20402;-81
2022/05/16 05:04:45;;;;;;;;;;;;;;;;;;5088579;28;19912;-81
2022/05/16 05:07:32;;;;;;;;;;;;;;;;;;5078442;28;19912;-82
2022/05/16 05:16:29;;;;;;;;;;;;;;;;;;5082460;28;19927;-81
2022/05/16 05:19:16;;;;;;;;;;;;;;;;;;5087366;28;19916;-80
2022/05/16 05:22:03;;;;;;;;;;;;;;;;;;5089410;28;19915;-81
2022/05/16 05:24:50;;;;;;;;;;;;;;;;;;5079159;28;19912;-82
2022/05/16 05:27:36;;;;;;;;;;;;;;;;;;5088638;28;19931;-82
2022/05/16 05:30:23;;;;;;;;;;;;;;;;;;5082008;28;20364;-83
2022/05/16 05:33:09;;;;;;;;;;;;;;;;;;5087988;28;19919;-82
2022/05/16 05:35:56;;;;;;;;;;;;;;;;;;5086389;28;19927;-80
2022/05/16 05:38:42;;;;;;;;;;;;;;;;;;5087225;28;19908;-81
2022/05/16 05:41:29;;;;;;;;;;;;;;;;;;5090379;28;19916;-80
2022/05/16 05:44:15;;;;;;;;;;;;;;;;;;5089009;28;19948;-80
2022/05/16 05:47:02;;;;;;;;;;;;;;;;;;5088630;28;19912;-79
2022/05/16 05:49:48;;;;;;;;;;;;;;;;;;5086985;28;19912;-80
2022/05/16 05:52:35;;;;;;;;;;;;;;;;;;5085496;28;20357;-78
2022/05/16 05:55:21;;;;;;;;;;;;;;;;;;5079885;28;19927;-80
2022/05/16 05:58:07;;;;;;;;;;;;;;;;;;5091149;28;19920;-80
2022/05/16 06:00:54;;;;;;;;;;;;;;;;;;5088597;28;19908;-79
2022/05/16 06:03:40;;;;;;;;;;;;;;;;;;5088269;28;19924;-81
2022/05/16 06:06:28;;;;;;;;;;;;;;;;;;5080849;28;19923;-79
2022/05/16 06:09:14;;;;;;;;;;;;;;;;;;5086769;28;19920;-80
2022/05/16 06:12:03;;;;;;;;;;;;;;;;;;5075954;28;19919;-79
2022/05/16 06:14:49;;;;;;;;;;;;;;;;;;5088492;28;19919;-79
2022/05/16 06:17:36;;;;;;;;;;;;;;;;;;5086946;28;19924;-80
2022/05/16 06:20:23;;;;;;;;;;;;;;;;;;5073566;28;19919;-80
2022/05/16 06:23:09;;;;;;;;;;;;;;;;;;5094608;28;20006;-80
2022/05/16 06:25:56;;;;;;;;;;;;;;;;;;5092549;28;19919;-80
2022/05/16 06:28:42;;;;;;;;;;;;;;;;;;5083321;28;19923;-79
2022/05/16 06:31:28;;;;;;;;;;;;;;;;;;5082826;28;19915;-80
2022/05/16 06:34:15;;;;;;;;;;;;;;;;;;5085802;28;19953;-80
2022/05/16 06:37:01;;;;;;;;;;;;;;;;;;5099930;28;20280;-80
2022/05/16 06:39:48;;;;;;;;;;;;;;;;;;5088300;28;19916;-80
2022/05/16 06:42:34;;;;;;;;;;;;;;;;;;5088286;28;20283;-79
2022/05/16 06:45:21;;;;;;;;;;;;;;;;;;5097108;28;19918;-79
2022/05/16 06:48:07;;;;;;;;;;;;;;;;;;5102260;28;19908;-80
2022/05/16 06:50:54;;;;;;;;;;;;;;;;;;5088104;28;19912;-79
2022/05/16 06:53:40;;;;;;;;;;;;;;;;;;5077716;28;19931;-79
2022/05/16 06:56:27;;;;;;;;;;;;;;;;;;5090796;28;19911;-79
2022/05/16 06:59:13;;;;;;;;;;;;;;;;;;5092355;28;19916;-80
2022/05/16 07:02:00;;;;;;;;;;;;;;;;;;5091001;28;19916;-80
2022/05/16 07:04:46;;;;;;;;;;;;;;;;;;5079046;28;19939;-80
2022/05/16 07:07:33;;;;;;;;;;;;;;;;;;5092386;28;20003;-80
2022/05/16 07:10:20;;;;;;;;;;;;;;;;;;5092084;28;19908;-80
2022/05/16 07:13:08;;;;;;;;;;;;;;;;;;5092066;28;19914;-80
2022/05/16 07:15:54;;;;;;;;;;;;;;;;;;5095084;28;20283;-80
2022/05/16 07:18:41;;;;;;;;;;;;;;;;;;5094382;28;20367;-79
2022/05/16 07:21:27;;;;;;;;;;;;;;;;;;5088136;28;19916;-80
2022/05/16 07:24:14;;;;;;;;;;;;;;;;;;5091237;28;19912;-77
2022/05/16 07:30:05;;;;;;;;;;;;;;;;;;5082318;28;20396;-79
2022/05/16 07:32:52;;;;;;;;;;;;;;;;;;5088261;28;19915;-78
2022/05/16 07:35:38;;;;;;;;;;;;;;;;;;5091181;28;19908;-81
2022/05/16 07:38:28;;;;;;;;;;;;;;;;;;5089699;28;19920;-78
2022/05/16 07:41:15;;;;;;;;;;;;;;;;;;5089774;28;20336;-78
2022/05/16 07:44:01;;;;;;;;;;;;;;;;;;5090429;28;19932;-78
2022/05/16 07:46:48;;;;;;;;;;;;;;;;;;5089057;28;20360;-78
2022/05/16 07:49:37;;;;;;;;;;;;;;;;;;5090966;28;19914;-78
2022/05/16 07:52:24;;;;;;;;;;;;;;;;;;5084526;28;20359;-79
2022/05/16 07:55:13;;;;;;;;;;;;;;;;;;5088080;28;19908;-77
2022/05/16 07:58:00;;;;;;;;;;;;;;;;;;5103494;28;19916;-78
2022/05/16 08:00:48;;;;;;;;;;;;;;;;;;5080298;28;20295;-78
2022/05/16 08:03:35;;;;;;;;;;;;;;;;;;5092270;28;19916;-77
2022/05/16 08:06:21;;;;;;;;;;;;;;;;;;5095499;28;19926;-78
2022/05/16 08:12:12;;;;;;;;;;;;;;;;;;5090069;28;19917;-78
2022/05/16 08:15:00;;;;;;;;;;;;;;;;;;5091363;28;19909;-79
2022/05/16 08:17:46;;;;;;;;;;;;;;;;;;5088364;28;19924;-77
2022/05/16 08:20:33;;;;;;;;;;;;;;;;;;5085356;28;19919;-78
2022/05/16 08:23:19;;;;;;;;;;;;;;;;;;5081837;28;19915;-79
2022/05/16 08:26:06;;;;;;;;;;;;;;;;;;5091610;28;19919;-78
2022/05/16 08:28:52;;;;;;;;;;;;;;;;;;5092139;28;19916;-78
2022/05/16 08:31:42;;;;;;;;;;;;;;;;;;5080038;28;19918;-79
2022/05/16 08:34:28;;;;;;;;;;;;;;;;;;5089282;28;19916;-78
2022/05/16 08:40:20;;;;;;;;;;;;;;;;;;5078972;28;19956;-78
2022/05/16 08:43:11;;;;;;;;;;;;;;;;;;5088926;28;20014;-78
2022/05/16 08:45:57;;;;;;;;;;;;;;;;;;5090500;28;19908;-79
2022/05/16 08:48:44;;;;;;;;;;;;;;;;;;5082183;28;19935;-78
2022/05/16 08:51:30;;;;;;;;;;;;;;;;;;5089879;28;20371;-79
2022/05/16 08:54:17;;;;;;;;;;;;;;;;;;5089344;28;19912;-79
2022/05/16 08:57:04;;;;;;;;;;;;;;;;;;5089249;28;19927;-78
2022/05/16 08:59:50;;;;;;;;;;;;;;;;;;5088958;28;19908;-78
2022/05/16 09:02:37;;;;;;;;;;;;;;;;;;5099303;28;19912;-79
2022/05/16 09:05:23;;;;;;;;;;;;;;;;;;5088171;28;19931;-78
2022/05/16 09:08:10;;;;;;;;;;;;;;;;;;5088406;28;19921;-79
2022/05/16 09:10:56;;;;;;;;;;;;;;;;;;5089044;28;19912;-79
2022/05/16 09:13:43;;;;;;;;;;;;;;;;;;5088732;28;19908;-78
2022/05/16 09:16:29;;;;;;;;;;;;;;;;;;5085916;28;19942;-78
2022/05/16 09:19:16;;;;;;;;;;;;;;;;;;5087554;28;20414;-79
2022/05/16 09:22:03;;;;;;;;;;;;;;;;;;5088988;28;19911;-79
2022/05/16 09:24:49;;;;;;;;;;;;;;;;;;5091968;28;19916;-79
2022/05/16 09:30:41;;;;;;;;;;;;;;;;;;5085801;28;19931;-78
2022/05/16 09:33:28;;;;;;;;;;;;;;;;;;5088511;28;19918;-79
2022/05/16 09:36:15;;;;;;;;;;;;;;;;;;5105564;28;19930;-78
2022/05/16 09:39:01;;;;;;;;;;;;;;;;;;5108111;28;19919;-78
2022/05/16 09:41:48;;;;;;;;;;;;;;;;;;5076115;28;19912;-78
2022/05/16 09:44:35;;;;;;;;;;;;;;;;;;5089930;28;19916;-78
2022/05/16 09:47:26;;;;;;;;;;;;;;;;;;5088797;28;19918;-78
2022/05/16 09:50:14;;;;;;;;;;;;;;;;;;5075922;28;19908;-78
2022/05/16 09:53:01;;;;;;;;;;;;;;;;;;5059175;28;19919;-78
2022/05/16 09:55:57;;;;;;;;;;;;;;;;;;5079833;28;20227;-78
2022/05/16 09:58:44;;;;;;;;;;;;;;;;;;5086812;28;19912;-77
2022/05/16 10:01:31;;;;;;;;;;;;;;;;;;5089405;28;19912;-79
2022/05/16 10:04:17;;;;;;;;;;;;;;;;;;5079462;28;19908;-78
2022/05/16 10:07:04;;;;;;;;;;;;;;;;;;5088860;28;20612;-78
2022/05/16 10:09:50;;;;;;;;;;;;;;;;;;5088738;28;19908;-78
2022/05/16 10:12:37;;;;;;;;;;;;;;;;;;5090267;28;20364;-78
2022/05/16 10:15:23;;;;;;;;;;;;;;;;;;5088096;28;19908;-79
2022/05/16 10:18:12;;;;;;;;;;;;;;;;;;5081381;28;19922;-78
2022/05/16 10:20:59;;;;;;;;;;;;;;;;;;5076424;28;19945;-78
2022/05/16 10:23:45;;;;;;;;;;;;;;;;;;5089844;28;19949;-78
2022/05/16 10:26:31;;;;;;;;;;;;;;;;;;5080644;28;19916;-77
2022/05/16 10:29:18;;;;;;;;;;;;;;;;;;5085049;28;20324;-78
2022/05/16 10:35:10;;;;;;;;;;;;;;;;;;5072983;28;19908;-78
2022/05/16 10:37:56;;;;;;;;;;;;;;;;;;5088713;28;20406;-77
2022/05/16 10:40:43;;;;;;;;;;;;;;;;;;5092106;28;19908;-77
2022/05/16 10:43:29;;;;;;;;;;;;;;;;;;5104923;28;19931;-77
2022/05/16 10:46:16;;;;;;;;;;;;;;;;;;5091729;28;19923;-77
2022/05/16 10:49:02;;;;;;;;;;;;;;;;;;5087893;28;19915;-77
2022/05/16 10:51:49;;;;;;;;;;;;;;;;;;5090655;28;20368;-78
2022/05/16 10:54:35;;;;;;;;;;;;;;;;;;5103255;28;19916;-78
2022/05/16 10:57:22;;;;;;;;;;;;;;;;;;5082022;28;19923;-77
2022/05/16 11:00:08;;;;;;;;;;;;;;;;;;5089149;28;19919;-77
2022/05/16 11:02:55;;;;;;;;;;;;;;;;;;5088891;28;19935;-78
2022/05/16 11:05:42;;;;;;;;;;;;;;;;;;5089581;28;19908;-78
2022/05/16 11:08:29;;;;;;;;;;;;;;;;;;5078429;28;19917;-77
2022/05/16 11:11:16;;;;;;;;;;;;;;;;;;5082128;28;20276;-79
2022/05/16 11:14:04;;;;;;;;;;;;;;;;;;5105683;27;19914;-79
2022/05/16 11:16:50;;;;;;;;;;;;;;;;;;5090866;28;20387;-79
2022/05/16 11:19:37;;;;;;;;;;;;;;;;;;5078503;28;19920;-78
2022/05/16 11:22:23;;;;;;;;;;;;;;;;;;5091290;28;19931;-79
2022/05/16 11:25:10;;;;;;;;;;;;;;;;;;5090618;28;19919;-79
2022/05/16 11:27:56;;;;;;;;;;;;;;;;;;5087652;28;19932;-79
2022/05/16 11:30:43;;;;;;;;;;;;;;;;;;5091024;28;19916;-79
2022/05/16 11:33:29;;;;;;;;;;;;;;;;;;5082960;28;19908;-77
2022/05/16 11:36:17;;;;;;;;;;;;;;;;;;5090268;28;20551;-78
2022/05/16 11:39:03;;;;;;;;;;;;;;;;;;5091376;28;19930;-78
2022/05/16 11:41:50;;;;;;;;;;;;;;;;;;5078158;28;20388;-78
2022/05/16 11:44:37;;;;;;;;;;;;;;;;;;5090264;28;20006;-78
2022/05/16 11:47:23;;;;;;;;;;;;;;;;;;5100646;28;19908;-79
2022/05/16 11:50:10;;;;;;;;;;;;;;;;;;5090493;28;19916;-79
2022/05/16 11:52:56;;;;;;;;;;;;;;;;;;5090143;28;20303;-78
2022/05/16 12:01:53;;;;;;;;;;;;;;;;;;5085524;28;19915;-78
2022/05/16 12:04:40;;;;;;;;;;;;;;;;;;5089984;28;19908;-77
2022/05/16 12:07:26;;;;;;;;;;;;;;;;;;5089392;28;19912;-78
2022/05/16 12:10:13;;;;;;;;;;;;;;;;;;5090265;28;19915;-78
2022/05/16 12:12:59;;;;;;;;;;;;;;;;;;5079895;28;19919;-78
2022/05/16 12:15:46;;;;;;;;;;;;;;;;;;5086732;28;20573;-78
2022/05/16 12:18:33;;;;;;;;;;;;;;;;;;5086055;28;19928;-78
2022/05/16 12:21:20;;;;;;;;;;;;;;;;;;5076517;28;19908;-78
2022/05/16 12:24:06;;;;;;;;;;;;;;;;;;5089009;28;19927;-77
2022/05/16 12:26:52;;;;;;;;;;;;;;;;;;5088874;28;19915;-78
2022/05/16 12:29:39;;;;;;;;;;;;;;;;;;5088220;28;19935;-77
2022/05/16 12:32:25;;;;;;;;;;;;;;;;;;5089431;28;19908;-77
2022/05/16 12:35:12;;;;;;;;;;;;;;;;;;5081720;28;19908;-78
2022/05/16 12:37:58;;;;;;;;;;;;;;;;;;5087528;28;19926;-78
2022/05/16 12:40:45;;;;;;;;;;;;;;;;;;5089246;28;19919;-78
2022/05/16 12:43:32;;;;;;;;;;;;;;;;;;5079100;28;19919;-79
2022/05/16 12:46:18;;;;;;;;;;;;;;;;;;5088088;28;20018;-77
2022/05/16 12:49:05;;;;;;;;;;;;;;;;;;5089577;28;19912;-78
2022/05/16 12:51:51;;;;;;;;;;;;;;;;;;5077549;28;20613;-78
2022/05/16 12:54:38;;;;;;;;;;;;;;;;;;5088327;28;20475;-78
2022/05/16 12:57:25;;;;;;;;;;;;;;;;;;5097202;28;19916;-79
2022/05/16 13:00:11;;;;;;;;;;;;;;;;;;5093338;28;19912;-78
2022/05/16 13:02:58;;;;;;;;;;;;;;;;;;5083651;28;19914;-78
2022/05/16 13:05:45;;;;;;;;;;;;;;;;;;5088946;28;19912;-77
2022/05/16 13:08:32;;;;;;;;;;;;;;;;;;5085168;28;19919;-77
2022/05/16 13:11:18;;;;;;;;;;;;;;;;;;5085389;28;19908;-77
2022/05/16 13:14:05;;;;;;;;;;;;;;;;;;5073922;28;19908;-78
2022/05/16 13:16:52;;;;;;;;;;;;;;;;;;5088733;28;20303;-78
2022/05/16 13:19:38;;;;;;;;;;;;;;;;;;5082768;28;19915;-77
2022/05/16 13:22:25;;;;;;;;;;;;;;;;;;5087117;28;20268;-77
2022/05/16 13:25:11;;;;;;;;;;;;;;;;;;5081384;28;19912;-78
2022/05/16 13:31:05;;;;;;;;;;;;;;;;;;5090052;28;21350;-78
2022/05/16 13:33:52;;;;;;;;;;;;;;;;;;5089383;28;19918;-78
2022/05/16 13:36:39;;;;;;;;;;;;;;;;;;5075521;28;19920;-78
2022/05/16 13:39:26;;;;;;;;;;;;;;;;;;5087494;28;19916;-78
2022/05/16 13:42:13;;;;;;;;;;;;;;;;;;5089371;28;19915;-78
2022/05/16 13:44:59;;;;;;;;;;;;;;;;;;5083930;28;20378;-77
2022/05/16 13:47:45;;;;;;;;;;;;;;;;;;5084091;28;20360;-77
2022/05/16 13:50:32;;;;;;;;;;;;;;;;;;5102961;28;19919;-78
2022/05/16 13:53:19;;;;;;;;;;;;;;;;;;5084490;28;19908;-78
2022/05/16 13:56:05;;;;;;;;;;;;;;;;;;5083146;28;19931;-78
2022/05/16 13:58:51;;;;;;;;;;;;;;;;;;5085150;28;19916;-78
2022/05/16 14:01:38;;;;;;;;;;;;;;;;;;5088321;28;19912;-78
2022/05/16 14:04:25;;;;;;;;;;;;;;;;;;5082193;28;19920;-78
2022/05/16 14:07:11;;;;;;;;;;;;;;;;;;5084122;28;19919;-79
2022/05/16 14:09:58;;;;;;;;;;;;;;;;;;5089215;28;19916;-79
2022/05/16 14:12:44;;;;;;;;;;;;;;;;;;5067154;28;19919;-78
2022/05/16 14:15:31;;;;;;;;;;;;;;;;;;5081369;28;19942;-80
2022/05/16 14:18:17;;;;;;;;;;;;;;;;;;5091059;28;19922;-79
2022/05/16 14:21:04;;;;;;;;;;;;;;;;;;5099545;28;19915;-79
2022/05/16 14:23:50;;;;;;;;;;;;;;;;;;5087789;28;19914;-79
2022/05/16 14:26:37;;;;;;;;;;;;;;;;;;5089508;28;19916;-79
2022/05/16 14:29:23;;;;;;;;;;;;;;;;;;5096971;28;19915;-79
2022/05/16 14:32:10;;;;;;;;;;;;;;;;;;5087793;28;19923;-79
2022/05/16 14:34:56;;;;;;;;;;;;;;;;;;5078735;28;20315;-78
2022/05/16 14:37:42;;;;;;;;;;;;;;;;;;5087065;28;19916;-78
2022/05/16 14:40:29;;;;;;;;;;;;;;;;;;5089261;28;20287;-78
2022/05/16 14:43:15;;;;;;;;;;;;;;;;;;5084589;28;19908;-78
2022/05/16 14:49:07;;;;;;;;;;;;;;;;;;5082436;28;19908;-79
2022/05/16 14:51:53;;;;;;;;;;;;;;;;;;5088011;28;20364;-79
2022/05/16 14:54:40;;;;;;;;;;;;;;;;;;5087788;28;19911;-78
2022/05/16 14:57:26;;;;;;;;;;;;;;;;;;5088291;28;19927;-78
2022/05/16 15:04:02;;;;;;;;;;;;;;;;;;5096575;28;19912;-78
2022/05/16 15:06:25;;;;;;;;;;;;;;;;;;5076072;28;19916;-79
2022/05/16 15:09:12;;;;;;;;;;;;;;;;;;5075235;28;19912;-79
2022/05/16 15:11:58;;;;;;;;;;;;;;;;;;5087046;28;19915;-79
2022/05/16 15:14:44;;;;;;;;;;;;;;;;;;5086986;28;19907;-79
2022/05/16 15:17:31;;;;;;;;;;;;;;;;;;5091688;28;20397;-77
2022/05/16 15:20:17;;;;;;;;;;;;;;;;;;5090774;28;19908;-78
2022/05/16 15:23:04;;;;;;;;;;;;;;;;;;5100564;28;19922;-78
2022/05/16 15:25:50;;;;;;;;;;;;;;;;;;5090551;28;19912;-79
2022/05/16 15:28:37;;;;;;;;;;;;;;;;;;5079491;28;20296;-79
2022/05/16 15:31:24;;;;;;;;;;;;;;;;;;5088887;28;19912;-78
2022/05/16 15:34:11;;;;;;;;;;;;;;;;;;5086803;28;19928;-77
2022/05/16 15:36:57;;;;;;;;;;;;;;;;;;5085748;28;19923;-79
2022/05/16 15:39:44;;;;;;;;;;;;;;;;;;5101944;27;19912;-78
2022/05/16 15:42:31;;;;;;;;;;;;;;;;;;5088901;28;19998;-79
2022/05/16 15:45:18;;;;;;;;;;;;;;;;;;5085207;28;19908;-78
2022/05/16 15:48:04;;;;;;;;;;;;;;;;;;5083437;28;19915;-78
2022/05/16 15:50:51;;;;;;;;;;;;;;;;;;5089302;28;20384;-78
2022/05/16 15:53:38;;;;;;;;;;;;;;;;;;5096693;28;19918;-78
2022/05/16 15:56:24;;;;;;;;;;;;;;;;;;5088509;28;19915;-78
2022/05/16 15:59:11;;;;;;;;;;;;;;;;;;5084085;28;19927;-80
2022/05/16 16:02:05;;;;;;;;;;;;;;;;;;5087942;28;19912;-78
2022/05/16 16:11:02;;;;;;;;;;;;;;;;;;5088406;28;19953;-80
2022/05/16 16:13:49;;;;;;;;;;;;;;;;;;5082193;28;19912;-78
2022/05/16 16:16:35;;;;;;;;;;;;;;;;;;5087094;28;19962;-78
2022/05/16 16:19:22;;;;;;;;;;;;;;;;;;5084866;28;19923;-78
2022/05/16 16:22:08;;;;;;;;;;;;;;;;;;5086651;28;20264;-79
2022/05/16 16:24:55;;;;;;;;;;;;;;;;;;5085552;28;19916;-78
2022/05/16 16:27:43;;;;;;;;;;;;;;;;;;5085173;28;19951;-79
2022/05/16 16:30:30;;;;;;;;;;;;;;;;;;5087430;28;19920;-80
2022/05/16 16:33:16;;;;;;;;;;;;;;;;;;5088241;28;19919;-79
2022/05/16 16:36:03;;;;;;;;;;;;;;;;;;5086112;28;19908;-78
2022/05/16 16:38:50;;;;;;;;;;;;;;;;;;5085818;28;20323;-78
2022/05/16 16:41:37;;;;;;;;;;;;;;;;;;5088128;28;20383;-78
2022/05/16 16:44:24;;;;;;;;;;;;;;;;;;5081786;28;20297;-79
2022/05/16 16:47:10;;;;;;;;;;;;;;;;;;5085438;28;19916;-78
2022/05/16 16:49:57;;;;;;;;;;;;;;;;;;5089816;28;19916;-78
2022/05/16 16:58:55;;;;;;;;;;;;;;;;;;5091865;28;20439;-78
2022/05/16 17:01:41;;;;;;;;;;;;;;;;;;5088210;28;19920;-79
2022/05/16 17:04:28;;;;;;;;;;;;;;;;;;5102823;27;19912;-78
2022/05/16 17:07:14;;;;;;;;;;;;;;;;;;5105189;27;19915;-79
2022/05/16 17:10:02;;;;;;;;;;;;;;;;;;5087860;28;19920;-79
2022/05/16 17:12:49;;;;;;;;;;;;;;;;;;5089113;28;19919;-78
2022/05/16 17:15:35;;;;;;;;;;;;;;;;;;5092490;28;19915;-84
2022/05/16 17:18:22;;;;;;;;;;;;;;;;;;5087692;28;19920;-78
2022/05/16 17:21:09;;;;;;;;;;;;;;;;;;5100797;28;20288;-79
2022/05/16 17:23:55;;;;;;;;;;;;;;;;;;5086438;28;19908;-79
2022/05/16 17:26:51;;;;;;;;;;;;;;;;;;5080803;28;19927;-79
2022/05/16 17:29:38;;;;;;;;;;;;;;;;;;5086459;28;19919;-79
2022/05/16 17:32:25;;;;;;;;;;;;;;;;;;5085843;28;19908;-79
2022/05/16 17:35:12;;;;;;;;;;;;;;;;;;5068727;28;19924;-79
2022/05/16 17:37:58;;;;;;;;;;;;;;;;;;5065799;28;19923;-78
2022/05/16 17:40:45;;;;;;;;;;;;;;;;;;5065167;28;19908;-78
2022/05/16 17:43:31;;;;;;;;;;;;;;;;;;5063498;28;20454;-79
2022/05/16 17:46:18;;;;;;;;;;;;;;;;;;5080752;28;19908;-79
2022/05/16 17:49:04;;;;;;;;;;;;;;;;;;5063577;28;20332;-78
2022/05/16 17:51:51;;;;;;;;;;;;;;;;;;5069475;28;19915;-78
2022/05/16 17:54:37;;;;;;;;;;;;;;;;;;5071088;28;19916;-77
2022/05/16 17:57:24;;;;;;;;;;;;;;;;;;5060680;28;19913;-78
2022/05/16 18:00:11;;;;;;;;;;;;;;;;;;5077529;28;19916;-78
2022/05/16 18:02:58;;;;;;;;;;;;;;;;;;5067318;28;19927;-78
2022/05/16 18:05:45;;;;;;;;;;;;;;;;;;5067803;28;19920;-78
2022/05/16 18:08:31;;;;;;;;;;;;;;;;;;5081982;28;19920;-78
2022/05/16 18:14:23;;;;;;;;;;;;;;;;;;5065682;28;19912;-79
2022/05/16 18:17:11;;;;;;;;;;;;;;;;;;5063364;28;19952;-79
2022/05/16 18:19:58;;;;;;;;;;;;;;;;;;5073032;28;19926;-78
2022/05/16 18:22:44;;;;;;;;;;;;;;;;;;5068900;28;19932;-78
2022/05/16 18:25:31;;;;;;;;;;;;;;;;;;5087467;28;19923;-78
2022/05/16 18:28:18;;;;;;;;;;;;;;;;;;5083844;28;19920;-80
2022/05/16 18:31:04;;;;;;;;;;;;;;;;;;5081907;28;20409;-78
2022/05/16 18:33:51;;;;;;;;;;;;;;;;;;5080307;28;19912;-79
2022/05/16 18:36:37;;;;;;;;;;;;;;;;;;5098433;28;19908;-78
2022/05/16 18:39:25;;;;;;;;;;;;;;;;;;5083335;28;19913;-79
2022/05/16 18:51:27;;;;;;;;;;;;;;;;;;5089199;28;19927;-80
2022/05/16 18:54:16;;;;;;;;;;;;;;;;;;5088380;28;19915;-77
2022/05/16 18:57:02;;;;;;;;;;;;;;;;;;5085490;28;19920;-77
2022/05/16 18:59:49;;;;;;;;;;;;;;;;;;5082814;28;19920;-79
2022/05/16 19:02:35;;;;;;;;;;;;;;;;;;5081049;28;19928;-78
2022/05/16 19:05:22;;;;;;;;;;;;;;;;;;5082725;28;19923;-78
2022/05/16 19:08:08;;;;;;;;;;;;;;;;;;5084460;28;19913;-77
2022/05/16 19:10:55;;;;;;;;;;;;;;;;;;5083387;28;19908;-78
2022/05/16 19:13:41;;;;;;;;;;;;;;;;;;5091620;28;19908;-78
2022/05/16 19:16:28;;;;;;;;;;;;;;;;;;5083148;28;19916;-79
2022/05/16 19:19:20;;;;;;;;;;;;;;;;;;5080239;28;20299;-80
2022/05/16 19:22:07;;;;;;;;;;;;;;;;;;5086254;28;19934;-79
2022/05/16 19:24:53;;;;;;;;;;;;;;;;;;5085917;28;19918;-79
2022/05/16 19:31:58;;;;;;;;;;;;;;;;;;5091692;28;20296;-79
2022/05/16 19:33:51;;;;;;;;;;;;;;;;;;5087250;28;19927;-79
2022/05/16 19:36:38;;;;;;;;;;;;;;;;;;5083689;28;19908;-79
2022/05/16 19:39:24;;;;;;;;;;;;;;;;;;5087303;28;19916;-79
2022/05/16 19:42:13;;;;;;;;;;;;;;;;;;5081520;28;19912;-78
2022/05/16 19:45:00;;;;;;;;;;;;;;;;;;5090614;28;19919;-78
2022/05/16 19:47:47;;;;;;;;;;;;;;;;;;5082708;28;19922;-78
2022/05/16 19:50:33;;;;;;;;;;;;;;;;;;5084747;28;19913;-78
2022/05/16 19:53:20;;;;;;;;;;;;;;;;;;5077133;28;20685;-78
2022/05/16 19:56:06;;;;;;;;;;;;;;;;;;5086538;28;19923;-78
2022/05/16 19:58:54;;;;;;;;;;;;;;;;;;5098894;27;20391;-78
2022/05/16 20:01:40;;;;;;;;;;;;;;;;;;5089921;28;19908;-79
2022/05/16 20:04:27;;;;;;;;;;;;;;;;;;5085049;28;19919;-78
2022/05/16 20:07:14;;;;;;;;;;;;;;;;;;5099389;27;20324;-78
2022/05/16 20:10:00;;;;;;;;;;;;;;;;;;5087029;28;19908;-80
2022/05/16 20:12:47;;;;;;;;;;;;;;;;;;5077979;28;19926;-78
2022/05/16 20:15:34;;;;;;;;;;;;;;;;;;5083509;28;20241;-79
2022/05/16 20:18:20;;;;;;;;;;;;;;;;;;5090983;28;19916;-79